Time;durP1;ratioP1;P1;durP2;ratioP2;P2;SDS_P1;SDS_P2;PMS_P1;PMS_P2;Temp;Humidity;BMP_temperature;BMP_pressure;BME280_temperature;BME280_humidity;BME280_pressure;Samples;Min_cycle;Max_cycle;Signal;HPM_P1;HPM_P2
2021/07/20 00:01:21;;;;;;;7.88;6.10;;;;;;;;;;10319792;28;20413;-67
2021/07/20 00:06:19;;;;;;;5.45;4.95;;;;;;;;;;10319606;28;20483;-67
2021/07/20 00:11:18;;;;;;;5.97;5.38;;;;;;;;;;10319975;28;20045;-67
2021/07/20 00:16:18;;;;;;;8.55;6.15;;;;;;;;;;10319205;28;20406;-67
2021/07/20 00:21:16;;;;;;;8.48;6.18;;;;;;;;;;10319059;28;20044;-67
2021/07/20 00:26:14;;;;;;;11.05;6.32;;;;;;;;;;10318775;28;20099;-67
2021/07/20 00:31:13;;;;;;;7.00;6.32;;;;;;;;;;10318377;28;20497;-68
2021/07/20 00:36:12;;;;;;;7.25;6.45;;;;;;;;;;10318512;28;20044;-67
2021/07/20 00:41:11;;;;;;;8.38;6.28;;;;;;;;;;10318330;28;20066;-67
2021/07/20 00:46:09;;;;;;;9.63;6.78;;;;;;;;;;10316540;28;20778;-66
2021/07/20 00:51:08;;;;;;;8.85;7.03;;;;;;;;;;10316417;28;20052;-66
2021/07/20 00:56:09;;;;;;;6.40;5.82;;;;;;;;;;10316863;28;20060;-68
2021/07/20 01:01:12;;;;;;;8.70;6.50;;;;;;;;;;10317631;28;20044;-65
2021/07/20 01:06:18;;;;;;;8.10;6.07;;;;;;;;;;10315148;28;20056;-67
2021/07/20 01:11:19;;;;;;;10.80;6.50;;;;;;;;;;10315780;28;20048;-68
2021/07/20 01:16:19;;;;;;;8.40;6.30;;;;;;;;;;10317496;28;20056;-65
2021/07/20 01:21:20;;;;;;;8.25;7.38;;;;;;;;;;10315592;28;20486;-66
2021/07/20 01:26:22;;;;;;;8.27;6.85;;;;;;;;;;10316964;28;20087;-67
2021/07/20 01:31:24;;;;;;;9.07;7.38;;;;;;;;;;10316404;28;20057;-64
2021/07/20 01:36:31;;;;;;;7.25;6.50;;;;;;;;;;10315446;28;20090;-64
2021/07/20 01:41:31;;;;;;;9.25;7.05;;;;;;;;;;10315261;28;20057;-64
2021/07/20 01:46:33;;;;;;;7.13;6.30;;;;;;;;;;10316879;28;20470;-64
2021/07/20 01:51:33;;;;;;;7.43;6.72;;;;;;;;;;10316405;28;20047;-64
2021/07/20 01:56:37;;;;;;;7.38;6.22;;;;;;;;;;10316381;28;20036;-64
2021/07/20 02:01:41;;;;;;;6.55;5.70;;;;;;;;;;10314969;28;20154;-64
2021/07/20 02:12:15;;;;;;;7.57;6.18;;;;;;;;;;10323768;28;20051;-64
2021/07/20 02:17:33;;;;;;;7.30;6.60;;;;;;;;;;10329992;28;20045;-64
2021/07/20 02:22:33;;;;;;;7.93;5.93;;;;;;;;;;10322867;28;20394;-63
2021/07/20 02:27:33;;;;;;;8.30;7.07;;;;;;;;;;10322177;28;20056;-63
2021/07/20 02:32:33;;;;;;;7.25;6.30;;;;;;;;;;10321816;28;20060;-63
2021/07/20 02:37:42;;;;;;;7.95;7.03;;;;;;;;;;10322282;28;20516;-64
2021/07/20 02:42:44;;;;;;;10.15;7.10;;;;;;;;;;10321929;28;20425;-64
2021/07/20 02:47:43;;;;;;;8.57;7.28;;;;;;;;;;10323205;28;20099;-64
2021/07/20 02:52:45;;;;;;;7.20;6.57;;;;;;;;;;10320967;28;20047;-64
2021/07/20 02:57:51;;;;;;;10.32;7.32;;;;;;;;;;10321359;28;20511;-64
2021/07/20 03:02:50;;;;;;;8.85;7.95;;;;;;;;;;10322537;28;20567;-63
2021/07/20 03:07:51;;;;;;;12.32;8.57;;;;;;;;;;10320339;28;20049;-64
2021/07/20 03:12:54;;;;;;;10.88;8.98;;;;;;;;;;10320930;28;20071;-64
2021/07/20 03:17:54;;;;;;;9.88;8.98;;;;;;;;;;10319752;28;20061;-64
2021/07/20 03:22:54;;;;;;;9.48;8.65;;;;;;;;;;10320404;28;20486;-63
2021/07/20 03:27:55;;;;;;;11.52;10.40;;;;;;;;;;10320464;28;20055;-64
2021/07/20 03:32:59;;;;;;;10.45;9.35;;;;;;;;;;10319957;28;20060;-64
2021/07/20 03:38:17;;;;;;;10.48;9.38;;;;;;;;;;10325132;28;20048;-63
2021/07/20 03:43:19;;;;;;;17.65;15.95;;;;;;;;;;10319808;28;20421;-64
2021/07/20 03:48:20;;;;;;;19.13;17.20;;;;;;;;;;10321147;28;20099;-63
2021/07/20 03:53:28;;;;;;;12.02;11.02;;;;;;;;;;10319416;28;20048;-65
2021/07/20 03:58:29;;;;;;;10.85;9.77;;;;;;;;;;10318823;28;20493;-63
2021/07/20 04:03:29;;;;;;;11.45;9.07;;;;;;;;;;10320425;28;20053;-63
2021/07/20 04:08:34;;;;;;;10.48;9.57;;;;;;;;;;10322648;28;20080;-63
2021/07/20 04:13:36;;;;;;;10.93;9.98;;;;;;;;;;10318171;28;20417;-64
2021/07/20 04:18:53;;;;;;;13.15;10.00;;;;;;;;;;10321792;28;20049;-64
2021/07/20 04:24:14;;;;;;;10.38;9.40;;;;;;;;;;10318829;28;20048;-63
2021/07/20 04:29:16;;;;;;;10.73;9.73;;;;;;;;;;10317631;28;20056;-63
2021/07/20 04:34:18;;;;;;;10.98;9.98;;;;;;;;;;10317349;28;20533;-64
2021/07/20 04:39:25;;;;;;;14.63;12.70;;;;;;;;;;10327459;28;20051;-64
2021/07/20 04:44:26;;;;;;;12.63;11.43;;;;;;;;;;10328098;28;20083;-63
2021/07/20 04:49:51;;;;;;;11.65;10.55;;;;;;;;;;10331796;28;20083;-63
2021/07/20 04:54:50;;;;;;;10.38;9.35;;;;;;;;;;10348658;28;20080;-64
2021/07/20 04:59:50;;;;;;;10.93;9.85;;;;;;;;;;10357479;28;20425;-63
2021/07/20 05:04:50;;;;;;;11.27;10.15;;;;;;;;;;10357381;28;20056;-64
2021/07/20 05:09:51;;;;;;;10.20;9.30;;;;;;;;;;10356723;28;20067;-64
2021/07/20 05:14:52;;;;;;;11.18;10.18;;;;;;;;;;10357085;28;20476;-64
2021/07/20 05:20:04;;;;;;;10.95;9.52;;;;;;;;;;10357030;28;20051;-64
2021/07/20 05:25:22;;;;;;;10.70;9.50;;;;;;;;;;10357589;28;20045;-64
2021/07/20 05:30:24;;;;;;;10.45;9.00;;;;;;;;;;10357752;28;20477;-64
2021/07/20 05:35:23;;;;;;;10.32;9.27;;;;;;;;;;10356593;28;20063;-63
2021/07/20 05:40:22;;;;;;;9.30;8.40;;;;;;;;;;10355246;28;20044;-64
2021/07/20 05:45:27;;;;;;;9.10;8.23;;;;;;;;;;10355779;28;20044;-63
2021/07/20 05:50:28;;;;;;;11.02;9.93;;;;;;;;;;10355579;28;20048;-65
2021/07/20 05:56:00;;;;;;;13.45;9.77;;;;;;;;;;10356037;28;20481;-63
2021/07/20 06:01:02;;;;;;;10.20;9.30;;;;;;;;;;10355525;28;20071;-64
2021/07/20 06:06:03;;;;;;;10.15;9.15;;;;;;;;;;10355520;28;20051;-64
2021/07/20 06:11:03;;;;;;;9.70;8.73;;;;;;;;;;10356733;28;20082;-64
2021/07/20 06:16:04;;;;;;;10.25;9.20;;;;;;;;;;10356714;28;20075;-63
2021/07/20 06:21:03;;;;;;;13.07;11.77;;;;;;;;;;10356711;28;20048;-63
2021/07/20 06:26:02;;;;;;;10.05;9.05;;;;;;;;;;10356894;28;20051;-63
2021/07/20 06:31:01;;;;;;;10.63;8.85;;;;;;;;;;10355907;28;20094;-64
2021/07/20 06:36:01;;;;;;;9.07;8.15;;;;;;;;;;10356709;28;20044;-63
2021/07/20 06:40:59;;;;;;;8.85;7.95;;;;;;;;;;10356123;28;20040;-63
2021/07/20 06:46:00;;;;;;;8.68;7.97;;;;;;;;;;10355742;28;20052;-63
2021/07/20 06:50:58;;;;;;;9.93;9.02;;;;;;;;;;10356250;28;20076;-63
2021/07/20 06:56:00;;;;;;;11.70;9.90;;;;;;;;;;10359408;28;20075;-63
2021/07/20 07:00:59;;;;;;;9.63;8.75;;;;;;;;;;10349761;28;20052;-63
2021/07/20 07:06:00;;;;;;;10.00;9.10;;;;;;;;;;10338120;28;20068;-63
2021/07/20 07:11:00;;;;;;;9.45;8.63;;;;;;;;;;10338764;28;20064;-62
2021/07/20 07:15:59;;;;;;;9.65;8.75;;;;;;;;;;10321211;28;20048;-62
2021/07/20 07:20:58;;;;;;;9.18;8.30;;;;;;;;;;10320891;28;20071;-63
2021/07/20 07:25:58;;;;;;;10.02;8.68;;;;;;;;;;10314510;28;20485;-63
2021/07/20 07:30:58;;;;;;;9.20;8.40;;;;;;;;;;10315334;28;20096;-63
2021/07/20 07:35:57;;;;;;;8.45;7.68;;;;;;;;;;10318513;28;20456;-63
2021/07/20 07:40:56;;;;;;;9.38;8.18;;;;;;;;;;10319793;28;20048;-63
2021/07/20 07:45:55;;;;;;;9.68;7.85;;;;;;;;;;10320542;28;20079;-63
2021/07/20 07:50:56;;;;;;;8.45;7.07;;;;;;;;;;10319911;28;20064;-63
2021/07/20 07:55:56;;;;;;;8.93;6.90;;;;;;;;;;10320316;28;20083;-63
2021/07/20 08:00:54;;;;;;;8.25;7.45;;;;;;;;;;10320109;28;20059;-63
2021/07/20 08:05:53;;;;;;;8.65;7.85;;;;;;;;;;10319060;28;20076;-63
2021/07/20 08:10:52;;;;;;;9.10;7.55;;;;;;;;;;10319311;28;20079;-63
2021/07/20 08:15:52;;;;;;;9.07;8.18;;;;;;;;;;10319434;28;20528;-63
2021/07/20 08:20:54;;;;;;;9.45;8.55;;;;;;;;;;10319092;28;20182;-63
2021/07/20 08:25:54;;;;;;;9.73;8.73;;;;;;;;;;10318890;28;20067;-64
2021/07/20 08:30:56;;;;;;;8.93;7.57;;;;;;;;;;10318109;28;20083;-63
2021/07/20 08:36:15;;;;;;;8.48;7.55;;;;;;;;;;10318565;28;20060;-63
2021/07/20 08:41:24;;;;;;;9.40;6.53;;;;;;;;;;10317912;28;20076;-63
2021/07/20 08:46:29;;;;;;;7.68;6.97;;;;;;;;;;10318327;28;20489;-63
2021/07/20 08:51:32;;;;;;;7.95;7.22;;;;;;;;;;10317605;28;20044;-63
2021/07/20 08:56:33;;;;;;;7.50;6.80;;;;;;;;;;10317931;28;20048;-63
2021/07/20 09:01:34;;;;;;;8.70;7.93;;;;;;;;;;10317778;28;20094;-63
2021/07/20 09:06:35;;;;;;;8.75;7.90;;;;;;;;;;10317094;28;20040;-63
2021/07/20 09:11:41;;;;;;;9.15;7.43;;;;;;;;;;10317381;28;20202;-63
2021/07/20 09:16:42;;;;;;;9.43;8.60;;;;;;;;;;10316298;28;20051;-63
2021/07/20 09:21:44;;;;;;;10.60;9.50;;;;;;;;;;10317500;28;20095;-63
2021/07/20 09:26:47;;;;;;;15.65;11.20;;;;;;;;;;10316643;28;20526;-63
2021/07/20 09:32:03;;;;;;;12.32;11.27;;;;;;;;;;10316650;28;20084;-63
2021/07/20 09:37:03;;;;;;;13.90;11.73;;;;;;;;;;10316401;28;20049;-63
2021/07/20 09:42:09;;;;;;;10.52;9.55;;;;;;;;;;10316693;28;20064;-63
2021/07/20 09:47:10;;;;;;;10.63;9.73;;;;;;;;;;10316423;28;20052;-64
2021/07/20 09:52:13;;;;;;;10.63;9.70;;;;;;;;;;10316210;28;20068;-63
2021/07/20 09:57:19;;;;;;;9.57;8.77;;;;;;;;;;10316352;28;20051;-63
2021/07/20 10:02:20;;;;;;;9.45;8.15;;;;;;;;;;10316344;28;20048;-63
2021/07/20 10:07:23;;;;;;;10.38;9.40;;;;;;;;;;10315923;28;20496;-63
2021/07/20 10:12:27;;;;;;;8.80;7.85;;;;;;;;;;10315439;28;20072;-63
2021/07/20 10:17:27;;;;;;;8.20;7.32;;;;;;;;;;10315968;28;20390;-63
2021/07/20 10:22:29;;;;;;;10.30;9.27;;;;;;;;;;10315798;28;20409;-62
2021/07/20 10:27:31;;;;;;;11.90;10.80;;;;;;;;;;10318849;28;20063;-63
2021/07/20 10:32:33;;;;;;;10.75;9.75;;;;;;;;;;10322984;28;20064;-63
2021/07/20 10:37:33;;;;;;;10.02;9.02;;;;;;;;;;10323141;28;20056;-63
2021/07/20 10:42:36;;;;;;;15.13;9.90;;;;;;;;;;10322954;28;20044;-63
2021/07/20 10:47:37;;;;;;;11.13;10.13;;;;;;;;;;10322945;28;20048;-63
2021/07/20 10:52:48;;;;;;;12.23;10.98;;;;;;;;;;10329694;28;20083;-63
2021/07/20 10:57:54;;;;;;;11.85;10.90;;;;;;;;;;10356898;28;20075;-63
2021/07/20 11:02:58;;;;;;;11.52;10.18;;;;;;;;;;10357710;28;20040;-63
2021/07/20 11:07:58;;;;;;;10.45;9.18;;;;;;;;;;10361344;28;20059;-63
2021/07/20 11:12:59;;;;;;;9.80;8.35;;;;;;;;;;10353569;28;20122;-63
2021/07/20 11:18:00;;;;;;;9.57;8.68;;;;;;;;;;10352806;28;20472;-63
2021/07/20 11:23:01;;;;;;;;;;;;;;;;;;10346686;28;20053;-63
2021/07/20 11:28:01;;;;;;;18.67;11.63;;;;;;;;;;10344415;28;20189;-63
2021/07/20 11:33:02;;;;;;;11.93;9.90;;;;;;;;;;10347202;28;20087;-63
2021/07/20 11:38:04;;;;;;;9.73;7.88;;;;;;;;;;10356296;28;20071;-63
2021/07/20 11:43:07;;;;;;;7.90;7.20;;;;;;;;;;10360148;28;20040;-63
2021/07/20 11:48:06;;;;;;;15.63;9.83;;;;;;;;;;10361625;28;20051;-63
2021/07/20 11:53:10;;;;;;;8.68;7.65;;;;;;;;;;10361658;28;20087;-63
2021/07/20 11:58:08;;;;;;;;;;;;;;;;;;10362281;28;20044;-64
2021/07/20 12:03:27;;;;;;;7.72;7.03;;;;;;;;;;10361768;28;20421;-63
2021/07/20 12:08:29;;;;;;;7.88;6.90;;;;;;;;;;10335754;28;20376;-63
2021/07/20 12:13:27;;;;;;;9.00;8.13;;;;;;;;;;10339588;28;20070;-63
2021/07/20 12:18:29;;;;;;;15.15;13.68;;;;;;;;;;10338541;28;20079;-64
2021/07/20 12:23:27;;;;;;;21.00;19.02;;;;;;;;;;10329267;28;20071;-63
2021/07/20 12:28:26;;;;;;;15.25;12.00;;;;;;;;;;10336462;28;20051;-62
2021/07/20 12:33:24;;;;;;;8.55;7.75;;;;;;;;;;10348463;28;20118;-63
2021/07/20 12:38:24;;;;;;;9.63;7.90;;;;;;;;;;10353176;28;20082;-63
2021/07/20 12:43:23;;;;;;;12.93;11.75;;;;;;;;;;10355890;28;20102;-63
2021/07/20 12:48:22;;;;;;;9.95;8.57;;;;;;;;;;10357770;28;20427;-63
2021/07/20 12:53:21;;;;;;;10.30;8.98;;;;;;;;;;10358563;28;20288;-63
2021/07/20 12:58:21;;;;;;;8.77;8.07;;;;;;;;;;10359261;28;20509;-63
2021/07/20 13:03:19;;;;;;;9.15;8.35;;;;;;;;;;10359141;28;20472;-63
2021/07/20 13:08:19;;;;;;;9.80;8.88;;;;;;;;;;10359021;28;20044;-63
2021/07/20 13:13:18;;;;;;;9.35;8.45;;;;;;;;;;10358662;28;20080;-63
2021/07/20 13:18:23;;;;;;;11.10;9.70;;;;;;;;;;10358001;28;20493;-63
2021/07/20 13:23:25;;;;;;;10.50;9.38;;;;;;;;;;10358713;28;20044;-63
2021/07/20 13:28:27;;;;;;;16.52;10.30;;;;;;;;;;10358234;28;20452;-64
2021/07/20 13:33:27;;;;;;;12.73;10.15;;;;;;;;;;10357426;28;20105;-63
2021/07/20 13:38:27;;;;;;;12.50;10.73;;;;;;;;;;10358135;28;20062;-63
2021/07/20 13:43:26;;;;;;;12.18;9.65;;;;;;;;;;10358102;28;20056;-63
2021/07/20 13:48:25;;;;;;;8.13;7.43;;;;;;;;;;10357693;28;20047;-63
2021/07/20 13:53:28;;;;;;;7.63;7.03;;;;;;;;;;10357577;28;20072;-63
2021/07/20 13:58:27;;;;;;;10.23;9.13;;;;;;;;;;10357976;28;20052;-63
2021/07/20 14:03:26;;;;;;;11.07;9.98;;;;;;;;;;10362396;28;20055;-63
2021/07/20 14:08:26;;;;;;;9.75;8.57;;;;;;;;;;10365988;28;20068;-63
2021/07/20 14:13:26;;;;;;;13.00;8.63;;;;;;;;;;10365995;28;20075;-63
2021/07/20 14:18:25;;;;;;;9.98;7.70;;;;;;;;;;10365619;28;20237;-63
2021/07/20 14:23:24;;;;;;;10.98;8.65;;;;;;;;;;10365229;28;20044;-63
2021/07/20 14:28:24;;;;;;;11.80;8.57;;;;;;;;;;10364888;28;20071;-63
2021/07/20 14:33:23;;;;;;;9.38;8.50;;;;;;;;;;10363937;28;20087;-63
2021/07/20 14:38:35;;;;;;;11.43;9.95;;;;;;;;;;10364988;28;20485;-63
2021/07/20 14:43:38;;;;;;;10.38;9.38;;;;;;;;;;10364114;28;20048;-63
2021/07/20 14:48:39;;;;;;;14.48;12.43;;;;;;;;;;10364542;28;20048;-63
2021/07/20 14:53:47;;;;;;;11.60;9.75;;;;;;;;;;10364203;28;20079;-63
2021/07/20 14:58:52;;;;;;;11.18;8.40;;;;;;;;;;10363537;28;20058;-63
2021/07/20 15:03:51;;;;;;;9.90;8.20;;;;;;;;;;10363751;28;20132;-63
2021/07/20 15:08:51;;;;;;;10.45;8.90;;;;;;;;;;10363793;28;20512;-63
2021/07/20 15:13:52;;;;;;;12.63;8.43;;;;;;;;;;10362349;28;20072;-64
2021/07/20 15:18:54;;;;;;;13.02;7.10;;;;;;;;;;10363195;28;20217;-63
2021/07/20 15:23:52;;;;;;;10.55;9.45;;;;;;;;;;10363107;28;20059;-63
2021/07/20 15:28:53;;;;;;;10.88;8.77;;;;;;;;;;10363151;28;20516;-63
2021/07/20 15:33:51;;;;;;;10.55;9.13;;;;;;;;;;10362296;28;20083;-63
2021/07/20 15:38:50;;;;;;;11.18;8.93;;;;;;;;;;10362525;28;20047;-63
2021/07/20 15:43:48;;;;;;;10.45;9.35;;;;;;;;;;10362482;28;20059;-63
2021/07/20 15:48:49;;;;;;;9.63;8.63;;;;;;;;;;10362354;28;20086;-63
2021/07/20 15:53:48;;;;;;;13.15;7.88;;;;;;;;;;10361882;28;20074;-63
2021/07/20 15:58:48;;;;;;;9.88;8.90;;;;;;;;;;10361831;28;20040;-63
2021/07/20 16:03:48;;;;;;;15.25;9.73;;;;;;;;;;10359741;28;20432;-63
2021/07/20 16:08:46;;;;;;;12.38;8.55;;;;;;;;;;10360976;28;20052;-63
2021/07/20 16:13:51;;;;;;;9.45;8.52;;;;;;;;;;10361213;28;20089;-63
2021/07/20 16:18:51;;;;;;;11.75;9.98;;;;;;;;;;10360821;28;20052;-63
2021/07/20 16:23:50;;;;;;;9.32;8.25;;;;;;;;;;10359717;28;20044;-63
2021/07/20 16:28:48;;;;;;;10.88;7.65;;;;;;;;;;10360500;28;20071;-65
2021/07/20 16:33:48;;;;;;;8.75;7.88;;;;;;;;;;10359373;28;20091;-63
2021/07/20 16:38:48;;;;;;;9.98;8.57;;;;;;;;;;10360269;28;20048;-63
2021/07/20 16:43:47;;;;;;;14.63;10.80;;;;;;;;;;10360194;28;20228;-63
2021/07/20 16:48:47;;;;;;;11.10;8.18;;;;;;;;;;10359621;28;20083;-66
2021/07/20 16:53:47;;;;;;;14.93;9.55;;;;;;;;;;10359452;28;20508;-66
2021/07/20 16:58:48;;;;;;;12.52;9.45;;;;;;;;;;10359388;28;20071;-66
2021/07/20 17:03:47;;;;;;;11.63;8.63;;;;;;;;;;10359317;28;20044;-65
2021/07/20 17:08:46;;;;;;;14.07;8.68;;;;;;;;;;10359196;28;20047;-66
2021/07/20 17:13:47;;;;;;;14.63;9.43;;;;;;;;;;10358610;28;20090;-65
2021/07/20 17:18:46;;;;;;;16.55;9.95;;;;;;;;;;10358743;28;20043;-65
2021/07/20 17:23:48;;;;;;;12.48;9.45;;;;;;;;;;10358599;28;20047;-65
2021/07/20 17:28:50;;;;;;;14.57;9.87;;;;;;;;;;10358505;28;20040;-66
2021/07/20 17:33:52;;;;;;;11.10;9.98;;;;;;;;;;10357358;28;20512;-66
2021/07/20 17:38:50;;;;;;;12.45;9.70;;;;;;;;;;10357525;28;20401;-66
2021/07/20 17:43:51;;;;;;;13.15;9.93;;;;;;;;;;10357945;28;20055;-66
2021/07/20 17:48:50;;;;;;;13.52;8.25;;;;;;;;;;10357054;28;20540;-66
2021/07/20 17:53:53;;;;;;;10.88;7.63;;;;;;;;;;10357536;28;20048;-66
2021/07/20 17:58:53;;;;;;;9.20;8.25;;;;;;;;;;10357390;28;20059;-66
2021/07/20 18:03:51;;;;;;;12.55;8.20;;;;;;;;;;10357514;28;20051;-66
2021/07/20 18:08:49;;;;;;;10.88;7.38;;;;;;;;;;10357483;28;20080;-65
2021/07/20 18:13:48;;;;;;;10.85;8.00;;;;;;;;;;10357207;28;20072;-66
2021/07/20 18:18:47;;;;;;;9.35;7.05;;;;;;;;;;10357393;28;20415;-66
2021/07/20 18:23:46;;;;;;;10.18;7.32;;;;;;;;;;10357288;28;20048;-66
2021/07/20 18:28:46;;;;;;;7.53;6.80;;;;;;;;;;10356168;28;20197;-66
2021/07/20 18:33:44;;;;;;;9.07;6.50;;;;;;;;;;10356218;28;20091;-66
2021/07/20 18:38:44;;;;;;;8.77;6.30;;;;;;;;;;10356911;28;20040;-66
2021/07/20 18:43:45;;;;;;;10.30;6.45;;;;;;;;;;10356839;28;20517;-66
2021/07/20 18:48:44;;;;;;;13.48;6.70;;;;;;;;;;10360277;28;20044;-66
2021/07/20 18:53:44;;;;;;;10.00;6.47;;;;;;;;;;10364290;28;20080;-66
2021/07/20 18:58:44;;;;;;;10.32;6.25;;;;;;;;;;10363354;28;20493;-66
2021/07/20 19:03:42;;;;;;;10.23;6.43;;;;;;;;;;10364041;28;20462;-66
2021/07/20 19:08:41;;;;;;;10.38;6.15;;;;;;;;;;10363916;28;20484;-64
2021/07/20 19:13:41;;;;;;;6.43;5.60;;;;;;;;;;10363537;28;20075;-65
2021/07/20 19:18:39;;;;;;;10.65;5.30;;;;;;;;;;10363343;28;20047;-65
2021/07/20 19:23:38;;;;;;;6.78;5.15;;;;;;;;;;10363110;28;20040;-66
2021/07/20 19:28:36;;;;;;;8.68;5.50;;;;;;;;;;10363001;28;20485;-65
2021/07/20 19:33:35;;;;;;;7.95;5.07;;;;;;;;;;10361955;28;20115;-66
2021/07/20 19:38:34;;;;;;;8.10;5.20;;;;;;;;;;10362656;28;20421;-65
2021/07/20 19:43:32;;;;;;;5.40;4.90;;;;;;;;;;10362355;28;20454;-66
2021/07/20 19:48:31;;;;;;;11.75;5.22;;;;;;;;;;10362233;28;20048;-66
2021/07/20 19:53:32;;;;;;;6.07;4.95;;;;;;;;;;10361825;28;20075;-66
2021/07/20 19:58:30;;;;;;;6.85;5.00;;;;;;;;;;10361136;28;20051;-66
2021/07/20 20:03:29;;;;;;;7.93;5.03;;;;;;;;;;10361739;28;20052;-66
2021/07/20 20:08:27;;;;;;;8.35;5.00;;;;;;;;;;10361509;28;20040;-66
2021/07/20 20:13:27;;;;;;;5.40;4.80;;;;;;;;;;10361238;28;20086;-66
2021/07/20 20:18:25;;;;;;;6.35;5.75;;;;;;;;;;10361320;28;20048;-66
2021/07/20 20:23:26;;;;;;;8.30;5.55;;;;;;;;;;10360872;28;20509;-66
2021/07/20 20:28:24;;;;;;;7.05;4.97;;;;;;;;;;10359744;28;20052;-67
2021/07/20 20:33:24;;;;;;;5.45;4.95;;;;;;;;;;10359926;28;20094;-66
2021/07/20 20:38:22;;;;;;;7.47;5.30;;;;;;;;;;10360211;28;20047;-66
2021/07/20 20:43:22;;;;;;;9.32;5.85;;;;;;;;;;10360028;28;20051;-66
2021/07/20 20:48:20;;;;;;;6.97;5.40;;;;;;;;;;10359745;28;20058;-66
2021/07/20 20:53:20;;;;;;;5.57;4.97;;;;;;;;;;10359561;28;20524;-66
2021/07/20 20:58:18;;;;;;;6.55;5.40;;;;;;;;;;10358771;28;20040;-66
2021/07/20 21:03:16;;;;;;;16.58;5.82;;;;;;;;;;10359408;28;20040;-67
2021/07/20 21:08:15;;;;;;;5.85;5.25;;;;;;;;;;10359248;28;20043;-66
2021/07/20 21:13:16;;;;;;;7.28;6.07;;;;;;;;;;10358033;28;20452;-66
2021/07/20 21:18:14;;;;;;;7.82;6.20;;;;;;;;;;10358638;28;20051;-67
2021/07/20 21:23:12;;;;;;;10.75;6.20;;;;;;;;;;10358444;28;20044;-67
2021/07/20 21:28:11;;;;;;;6.25;5.65;;;;;;;;;;10358321;28;20048;-66
2021/07/20 21:33:10;;;;;;;8.35;6.50;;;;;;;;;;10355934;28;20437;-67
2021/07/20 21:38:09;;;;;;;8.10;6.90;;;;;;;;;;10358075;28;20051;-66
2021/07/20 21:43:08;;;;;;;9.85;7.80;;;;;;;;;;10358024;28;20052;-66
2021/07/20 21:48:06;;;;;;;8.95;8.02;;;;;;;;;;10357791;28;20048;-66
2021/07/20 21:53:06;;;;;;;10.55;8.75;;;;;;;;;;10357507;28;20505;-67
2021/07/20 21:58:05;;;;;;;9.75;8.60;;;;;;;;;;10357690;28;20055;-66
2021/07/20 22:03:04;;;;;;;12.15;10.10;;;;;;;;;;10357386;28;20044;-67
2021/07/20 22:08:03;;;;;;;11.00;9.90;;;;;;;;;;10357462;28;20500;-66
2021/07/20 22:13:02;;;;;;;14.82;9.27;;;;;;;;;;10357177;28;20044;-67
2021/07/20 22:18:01;;;;;;;14.95;9.88;;;;;;;;;;10357092;28;20068;-67
2021/07/20 22:23:00;;;;;;;12.10;10.13;;;;;;;;;;10359586;28;20480;-66
2021/07/20 22:27:59;;;;;;;12.02;10.82;;;;;;;;;;10365287;28;20051;-67
2021/07/20 22:32:59;;;;;;;13.73;11.50;;;;;;;;;;10364489;28;20051;-66
2021/07/20 22:37:58;;;;;;;9.55;8.32;;;;;;;;;;10364426;28;20076;-67
2021/07/20 22:42:57;;;;;;;9.35;8.43;;;;;;;;;;10364831;28;20044;-68
2021/07/20 22:47:55;;;;;;;9.02;8.23;;;;;;;;;;10364510;28;20043;-67
2021/07/20 22:52:55;;;;;;;9.00;7.50;;;;;;;;;;10363939;28;20048;-67
2021/07/20 22:57:54;;;;;;;10.48;7.20;;;;;;;;;;10363839;28;20459;-67
2021/07/20 23:02:53;;;;;;;9.45;6.57;;;;;;;;;;10364415;28;20084;-67
2021/07/20 23:07:51;;;;;;;8.82;6.68;;;;;;;;;;10363696;28;20052;-68
2021/07/20 23:12:51;;;;;;;7.13;6.40;;;;;;;;;;10362205;28;20055;-67
2021/07/20 23:17:49;;;;;;;7.53;6.50;;;;;;;;;;10363228;28;20044;-68
2021/07/20 23:22:49;;;;;;;7.63;6.35;;;;;;;;;;10363110;28;20418;-67
2021/07/20 23:27:48;;;;;;;8.05;5.75;;;;;;;;;;10363027;28;20051;-67
2021/07/20 23:32:48;;;;;;;6.68;6.07;;;;;;;;;;10362303;28;20059;-68
2021/07/20 23:37:47;;;;;;;6.75;6.15;;;;;;;;;;10361666;28;20067;-68
2021/07/20 23:42:46;;;;;;;7.90;6.75;;;;;;;;;;10361052;28;20044;-68
2021/07/20 23:47:44;;;;;;;6.68;5.75;;;;;;;;;;10362222;28;20051;-68
2021/07/20 23:52:44;;;;;;;9.80;6.57;;;;;;;;;;10361924;28;20070;-67
2021/07/20 23:57:42;;;;;;;8.40;6.40;;;;;;;;;;10361763;28;20048;-67
